Terminal Aerodrome Forecast
Issued by NWS Duluth, MN

Home | Current Version | Previous Version | Text Only | Print | Product List | Glossary On
Versions: 1 2 3 4 5 6 7 8 9 10 11 12 13 14 15 16 17 18 19 20 21 22 23 24 25 26 27 28 29 30 31 32 33
000
FTUS43 KDLH 210300 AAA
TAFDLH
TAF AMD
KDLH 210301Z 2103/2124 19011KT 6SM BR OVC008
     FM210600 18009KT 4SM BR OVC007
     FM211000 16008KT 3SM BR OVC006
      TEMPO 2110/2114 1 1/2SM -FZDZSN BR OVC004
     FM212100 13009KT 5SM BR OVC010=

USA.gov is the U.S. government's official web portal to all federal, state and local government web resources and services.